createdAt,value
2022-11-10T00:01:06.275Z,46.85
2022-11-10T00:03:33.675Z,48.15
2022-11-10T00:06:02.810Z,44.38
2022-11-10T00:08:29.451Z,46.78
2022-11-10T00:10:59.020Z,47.15
2022-11-10T00:13:32.022Z,43.80
2022-11-10T00:16:19.126Z,41.63
2022-11-10T00:18:45.703Z,46.42
2022-11-10T00:21:14.667Z,44.00
2022-11-10T00:23:41.911Z,41.20
2022-11-10T00:26:20.026Z,42.53
2022-11-10T00:28:46.658Z,43.10
2022-11-10T00:31:13.809Z,41.55
2022-11-10T00:33:42.841Z,45.88
2022-11-10T00:36:09.894Z,44.38
2022-11-10T00:38:36.544Z,45.08
2022-11-10T00:41:03.599Z,44.78
2022-11-10T00:43:30.654Z,44.38
2022-11-10T00:45:57.791Z,44.53
2022-11-10T00:48:24.655Z,43.95
2022-11-10T00:50:51.522Z,44.42
2022-11-10T00:53:18.546Z,51.20
2022-11-10T00:55:45.216Z,54.83
2022-11-10T00:58:11.824Z,41.38
2022-11-10T01:00:38.350Z,40.97
2022-11-10T01:03:04.999Z,44.15
2022-11-10T01:05:32.090Z,87.50
2022-11-10T01:08:02.181Z,53.25
2022-11-10T01:10:28.717Z,41.47
2022-11-10T01:12:55.516Z,44.53
2022-11-10T01:15:27.270Z,70.03
2022-11-10T01:17:55.950Z,46.80
2022-11-10T01:20:23.520Z,43.40
2022-11-10T01:22:50.136Z,39.22
2022-11-10T01:25:16.694Z,40.08
2022-11-10T01:27:43.237Z,53.08
2022-11-10T01:30:10.307Z,52.67
2022-11-10T01:32:36.798Z,45.10
2022-11-10T01:35:03.865Z,40.17
2022-11-10T01:37:30.310Z,44.63
2022-11-10T01:39:56.853Z,45.53
2022-11-10T01:42:28.799Z,44.25
2022-11-10T01:45:23.157Z,44.65
2022-11-10T01:47:53.054Z,45.05
2022-11-10T01:50:24.043Z,47.40
2022-11-10T01:52:54.195Z,48.30
2022-11-10T01:55:20.744Z,49.45
2022-11-10T01:57:47.408Z,44.92
2022-11-10T02:00:14.012Z,49.75
2022-11-10T02:02:46.870Z,50.63
2022-11-10T02:05:13.544Z,47.75
2022-11-10T02:07:40.265Z,50.35
2022-11-10T02:10:14.733Z,52.58
2022-11-10T02:12:41.400Z,47.03
2022-11-10T02:15:11.184Z,42.20
2022-11-10T02:17:37.867Z,44.45
2022-11-10T02:20:07.520Z,43.25
2022-11-10T02:22:34.077Z,44.70
2022-11-10T02:25:00.511Z,45.50
2022-11-10T02:27:26.964Z,44.75
2022-11-10T02:29:53.679Z,41.83
2022-11-10T02:32:20.168Z,44.40
2022-11-10T02:34:46.606Z,42.47
2022-11-10T02:37:13.083Z,43.80
2022-11-10T02:39:39.517Z,42.45
2022-11-10T02:42:10.346Z,40.20
2022-11-10T02:44:40.555Z,42.17
2022-11-10T02:47:07.657Z,45.67
2022-11-10T02:49:34.130Z,45.17
2022-11-10T02:52:00.625Z,44.00
2022-11-10T02:54:27.077Z,45.08
2022-11-10T02:56:53.629Z,47.95
2022-11-10T02:59:20.060Z,45.45
2022-11-10T03:01:46.529Z,44.47
2022-11-10T03:04:13.111Z,50.70
2022-11-10T03:06:39.647Z,44.17
2022-11-10T03:09:06.160Z,47.85
2022-11-10T03:11:32.729Z,46.67
2022-11-10T03:14:02.067Z,49.58
2022-11-10T03:16:29.522Z,45.95
2022-11-10T03:18:56.006Z,48.22
2022-11-10T03:21:22.464Z,44.40
2022-11-10T03:23:48.872Z,43.58
2022-11-10T03:26:15.287Z,49.95
2022-11-10T03:28:41.727Z,46.00
2022-11-10T03:31:08.155Z,49.38
2022-11-10T03:33:35.558Z,44.20
2022-11-10T03:36:02.066Z,49.00
2022-11-10T03:38:28.542Z,43.75
2022-11-10T03:41:18.304Z,48.72
2022-11-10T03:43:41.320Z,42.38
2022-11-10T03:46:08.358Z,46.08
2022-11-10T03:48:34.919Z,43.95
2022-11-10T03:51:01.393Z,43.25
2022-11-10T03:53:27.851Z,47.97
2022-11-10T03:55:54.280Z,46.17
2022-11-10T03:58:20.675Z,45.75
2022-11-10T04:00:47.062Z,41.38
2022-11-10T04:03:13.540Z,42.97
2022-11-10T04:05:58.376Z,45.13
2022-11-10T04:08:43.132Z,43.22
2022-11-10T04:11:09.534Z,43.28
2022-11-10T04:13:54.231Z,40.65
2022-11-10T04:16:20.639Z,41.20
2022-11-10T04:18:47.123Z,40.10
2022-11-10T04:21:13.577Z,39.20
2022-11-10T04:23:40.015Z,40.08
2022-11-10T04:26:30.757Z,43.20
2022-11-10T04:29:01.229Z,41.30
2022-11-10T04:31:30.391Z,39.60
2022-11-10T04:33:57.993Z,43.42
2022-11-10T04:36:27.319Z,42.08
2022-11-10T04:38:55.347Z,43.03
2022-11-10T04:41:22.401Z,41.15
2022-11-10T04:43:48.822Z,42.67
2022-11-10T04:46:34.915Z,40.40
2022-11-10T04:49:02.287Z,42.05
2022-11-10T04:51:34.640Z,42.08
2022-11-10T04:54:01.840Z,41.30
2022-11-10T04:56:28.447Z,42.00
2022-11-10T04:58:55.406Z,50.70
2022-11-10T05:01:25.139Z,71.35
2022-11-10T05:03:52.051Z,44.42
2022-11-10T05:06:18.623Z,41.40
2022-11-10T05:08:46.199Z,44.83
2022-11-10T05:11:12.780Z,41.45
2022-11-10T05:13:39.451Z,49.35
2022-11-10T05:16:06.868Z,55.50
2022-11-10T05:18:33.813Z,50.83
2022-11-10T05:21:00.263Z,47.60
2022-11-10T05:23:38.984Z,50.10
2022-11-10T05:26:06.333Z,43.97
2022-11-10T05:28:33.310Z,44.58
2022-11-10T05:30:59.894Z,42.47
2022-11-10T05:33:26.504Z,40.28
2022-11-10T05:35:52.996Z,44.65
2022-11-10T05:38:19.453Z,41.83
2022-11-10T05:40:45.950Z,51.85
2022-11-10T05:43:12.394Z,50.20
2022-11-10T05:45:38.820Z,50.65
2022-11-10T05:48:05.451Z,52.40
2022-11-10T05:50:31.851Z,50.15
2022-11-10T05:52:58.405Z,49.55
2022-11-10T05:55:28.182Z,48.72
2022-11-10T05:57:55.564Z,57.78
2022-11-10T06:00:25.714Z,53.72
2022-11-10T06:03:06.641Z,45.92
2022-11-10T06:05:35.531Z,43.90
2022-11-10T06:08:04.687Z,40.60
2022-11-10T06:10:32.275Z,40.58
2022-11-10T06:12:58.760Z,43.65
2022-11-10T06:15:25.962Z,51.33
2022-11-10T06:17:53.157Z,58.67
2022-11-10T06:20:20.471Z,49.78
2022-11-10T06:22:59.541Z,43.78
2022-11-10T06:25:26.442Z,44.55
2022-11-10T06:27:53.499Z,43.58
2022-11-10T06:30:20.160Z,47.92
2022-11-10T06:32:46.716Z,49.95
2022-11-10T06:35:13.252Z,47.08
2022-11-10T06:37:39.724Z,41.50
2022-11-10T06:40:07.937Z,41.25
2022-11-10T06:42:35.287Z,54.97
2022-11-10T06:45:01.963Z,46.05
2022-11-10T06:47:32.712Z,43.08
2022-11-10T06:49:59.153Z,40.42
2022-11-10T06:52:25.618Z,43.40
2022-11-10T06:54:52.038Z,42.47
2022-11-10T06:57:19.647Z,43.22
2022-11-10T06:59:46.091Z,43.67
2022-11-10T07:02:16.426Z,50.05
2022-11-10T07:04:42.866Z,46.55
2022-11-10T07:07:10.500Z,41.53
2022-11-10T07:09:37.762Z,43.78
2022-11-10T07:12:05.328Z,41.40
2022-11-10T07:14:31.753Z,42.78
2022-11-10T07:16:58.198Z,40.67
2022-11-10T07:19:24.608Z,43.00
2022-11-10T07:21:51.016Z,44.53
2022-11-10T07:24:17.507Z,41.95
2022-11-10T07:26:43.982Z,40.45
2022-11-10T07:29:10.391Z,43.95
2022-11-10T07:31:36.818Z,44.05
2022-11-10T07:34:03.226Z,40.08
2022-11-10T07:36:29.677Z,39.80
2022-11-10T07:38:56.127Z,37.47
2022-11-10T07:41:22.680Z,40.08
2022-11-10T07:43:49.141Z,39.67
2022-11-10T07:46:16.692Z,37.47
2022-11-10T07:48:43.098Z,38.67
2022-11-10T07:51:09.695Z,39.78
2022-11-10T07:53:36.245Z,41.28
2022-11-10T07:56:02.784Z,39.45
2022-11-10T07:58:30.260Z,40.03
2022-11-10T08:00:56.722Z,37.10
2022-11-10T08:03:23.456Z,43.70
2022-11-10T08:05:50.170Z,38.35
2022-11-10T08:08:17.572Z,37.65
2022-11-10T08:10:44.612Z,40.13
2022-11-10T08:13:12.993Z,38.33
2022-11-10T08:15:40.614Z,37.13
2022-11-10T08:18:18.148Z,38.22
2022-11-10T08:20:45.176Z,41.90
2022-11-10T08:23:12.024Z,41.95
2022-11-10T08:25:39.268Z,35.22
2022-11-10T08:28:11.268Z,38.53
2022-11-10T08:30:39.909Z,37.83
2022-11-10T08:33:09.256Z,38.15
2022-11-10T08:35:38.239Z,39.50
2022-11-10T08:38:16.740Z,35.70
2022-11-10T08:40:44.248Z,39.22
2022-11-10T08:43:11.814Z,38.20
2022-11-10T08:45:40.535Z,38.95
2022-11-10T08:48:15.863Z,37.63
2022-11-10T08:50:43.016Z,38.88
2022-11-10T08:53:15.716Z,37.20
2022-11-10T08:55:43.323Z,38.75
2022-11-10T08:58:14.595Z,40.15
2022-11-10T09:03:11.972Z,40.67
2022-11-10T09:05:38.546Z,41.58
2022-11-10T09:08:05.393Z,40.97
2022-11-10T09:10:34.161Z,42.55
2022-11-10T09:13:02.441Z,42.47
2022-11-10T09:15:30.283Z,42.70
2022-11-10T09:18:01.951Z,45.25
2022-11-10T09:20:30.013Z,45.30
2022-11-10T09:22:56.500Z,44.97
2022-11-10T09:25:23.741Z,50.45
2022-11-10T09:27:50.164Z,47.03
2022-11-10T09:30:18.158Z,51.55
2022-11-10T09:32:46.675Z,44.55
2022-11-10T09:35:13.626Z,43.50
2022-11-10T09:37:40.401Z,48.92
2022-11-10T09:40:13.124Z,46.40
2022-11-10T09:42:41.390Z,43.55
2022-11-10T09:45:17.699Z,45.72
2022-11-10T09:48:02.265Z,46.30
2022-11-10T09:50:41.928Z,44.42
2022-11-10T09:53:31.261Z,49.17
2022-11-10T09:56:07.591Z,46.10
2022-11-10T09:58:39.565Z,45.10
2022-11-10T10:01:18.127Z,40.75
2022-11-10T10:04:04.043Z,41.78
2022-11-10T10:06:57.072Z,47.35
2022-11-10T10:12:10.237Z,47.85
2022-11-10T10:14:39.673Z,45.50
2022-11-10T10:17:08.997Z,42.65
2022-11-10T10:20:17.248Z,40.55
2022-11-10T10:22:57.438Z,44.63
2022-11-10T10:25:26.527Z,47.30
2022-11-10T10:28:15.196Z,40.22
2022-11-10T10:30:43.110Z,39.08
2022-11-10T10:33:17.116Z,34.20
2022-11-10T10:35:45.022Z,36.70
2022-11-10T10:38:33.522Z,36.83
2022-11-10T10:41:13.659Z,37.67
2022-11-10T10:43:47.408Z,36.88
2022-11-10T10:46:20.238Z,38.20
2022-11-10T10:48:50.588Z,37.13
2022-11-10T10:51:30.674Z,36.47
2022-11-10T10:53:57.185Z,36.70
2022-11-10T10:56:31.306Z,35.58
2022-11-10T10:59:03.942Z,38.55
2022-11-10T11:01:34.252Z,37.45
2022-11-10T11:04:05.209Z,39.70
2022-11-10T11:06:33.488Z,39.97
2022-11-10T11:09:14.119Z,38.67
2022-11-10T11:11:42.452Z,39.75
2022-11-10T11:14:15.905Z,39.58
2022-11-10T11:16:55.461Z,36.45
2022-11-10T11:19:30.104Z,39.78
2022-11-10T11:22:05.455Z,39.58
2022-11-10T11:24:43.193Z,40.58
2022-11-10T11:27:18.010Z,37.88
2022-11-10T11:30:05.835Z,35.88
2022-11-10T11:33:06.281Z,38.08
2022-11-10T11:35:45.129Z,35.00
2022-11-10T11:38:14.510Z,35.90
2022-11-10T11:40:50.040Z,36.92
2022-11-10T11:43:26.301Z,35.97
2022-11-10T11:46:18.880Z,38.97
2022-11-10T11:49:06.464Z,36.03
2022-11-10T11:51:50.904Z,36.97
2022-11-10T11:54:59.274Z,42.53
2022-11-10T11:57:53.794Z,45.45
2022-11-10T12:00:21.835Z,43.90
2022-11-10T12:03:12.143Z,52.20
2022-11-10T12:06:12.676Z,52.30
2022-11-10T12:09:02.589Z,43.95
2022-11-10T12:11:44.210Z,47.17
2022-11-10T12:14:43.023Z,39.00
2022-11-10T12:17:14.572Z,35.15
2022-11-10T12:20:25.583Z,42.67
2022-11-10T12:23:18.055Z,37.92
2022-11-10T12:26:22.585Z,35.92
2022-11-10T12:29:00.864Z,36.70
2022-11-10T12:31:32.796Z,35.58
2022-11-10T12:34:05.875Z,37.60
2022-11-10T12:36:33.355Z,37.25
2022-11-10T12:39:15.305Z,39.88
2022-11-10T12:42:01.856Z,38.60
2022-11-10T12:44:36.990Z,37.17
2022-11-10T12:47:06.813Z,37.17
2022-11-10T12:49:39.181Z,38.25
2022-11-10T12:52:25.089Z,40.17
2022-11-10T12:54:51.532Z,38.72
2022-11-10T12:57:22.834Z,41.20
2022-11-10T13:02:35.624Z,37.03
2022-11-10T13:05:14.280Z,38.13
2022-11-10T13:07:44.573Z,39.08
2022-11-10T13:10:27.198Z,38.57
2022-11-10T13:13:05.978Z,39.45
2022-11-10T13:15:35.402Z,36.00
2022-11-10T13:18:02.295Z,36.88
2022-11-10T13:20:54.672Z,38.83
2022-11-10T13:23:21.357Z,41.63
2022-11-10T13:26:10.335Z,38.88
2022-11-10T13:28:47.169Z,37.03
2022-11-10T13:31:28.538Z,41.97
2022-11-10T13:36:45.931Z,37.92
2022-11-10T13:39:24.262Z,41.90
2022-11-10T13:42:02.074Z,41.83
2022-11-10T13:44:34.127Z,41.63
2022-11-10T13:47:11.969Z,38.67
2022-11-10T13:50:08.324Z,42.47
2022-11-10T13:52:56.944Z,41.92
2022-11-10T13:55:49.700Z,43.13
2022-11-10T13:58:36.916Z,46.78
2022-11-10T14:01:15.297Z,42.33
2022-11-10T14:03:48.039Z,42.85
2022-11-10T14:06:22.435Z,38.53
2022-11-10T14:09:10.629Z,42.72
2022-11-10T14:11:45.795Z,41.38
2022-11-10T14:14:27.343Z,43.67
2022-11-10T14:16:54.531Z,45.17
2022-11-10T14:19:36.180Z,43.40
2022-11-10T14:22:15.959Z,45.58
2022-11-10T14:24:52.774Z,44.90
2022-11-10T14:27:26.755Z,43.53
2022-11-10T14:30:27.353Z,42.28
2022-11-10T14:33:14.104Z,43.27
2022-11-10T14:35:52.580Z,44.58
2022-11-10T14:38:43.689Z,45.78
2022-11-10T14:41:17.878Z,41.97
2022-11-10T14:43:44.576Z,40.97
2022-11-10T14:46:15.094Z,49.20
2022-11-10T14:48:41.532Z,53.38
2022-11-10T14:51:15.035Z,50.85
2022-11-10T14:53:48.455Z,42.50
2022-11-10T14:56:19.588Z,42.33
2022-11-10T14:58:48.471Z,40.83
2022-11-10T15:01:33.664Z,42.65
2022-11-10T15:04:05.954Z,39.92
2022-11-10T15:06:33.156Z,45.75
2022-11-10T15:08:59.870Z,43.10
2022-11-10T15:11:34.648Z,44.40
2022-11-10T15:14:01.265Z,44.13
2022-11-10T15:16:39.050Z,43.25
2022-11-10T15:19:27.337Z,42.35
2022-11-10T15:21:53.889Z,44.17
2022-11-10T15:24:22.871Z,47.78
2022-11-10T15:26:49.556Z,40.58
2022-11-10T15:29:21.580Z,42.20
2022-11-10T15:31:48.776Z,46.33
2022-11-10T15:34:40.479Z,42.72
2022-11-10T15:37:30.544Z,40.25
2022-11-10T15:40:28.423Z,42.75
2022-11-10T15:43:13.779Z,45.22
2022-11-10T15:45:41.735Z,44.70
2022-11-10T15:48:14.071Z,42.67
2022-11-10T15:50:46.936Z,43.45
2022-11-10T15:53:24.842Z,44.25
2022-11-10T15:55:51.551Z,41.95
2022-11-10T15:58:20.716Z,40.00
2022-11-10T16:00:47.838Z,42.80
2022-11-10T16:03:23.430Z,46.92
2022-11-10T16:05:49.886Z,46.03
2022-11-10T16:08:18.950Z,46.28
2022-11-10T16:10:47.908Z,44.90
2022-11-10T16:13:23.357Z,43.58
2022-11-10T16:15:50.398Z,39.95
2022-11-10T16:18:20.579Z,45.50
2022-11-10T16:20:48.221Z,41.50
2022-11-10T16:23:14.889Z,41.38
2022-11-10T16:25:42.448Z,41.15
2022-11-10T16:28:11.342Z,40.95
2022-11-10T16:30:37.850Z,43.25
2022-11-10T16:33:04.550Z,41.55
2022-11-10T16:35:31.007Z,41.42
2022-11-10T16:37:57.430Z,40.45
2022-11-10T16:40:24.572Z,39.67
2022-11-10T16:42:51.237Z,42.80
2022-11-10T16:45:23.601Z,44.13
2022-11-10T16:47:52.988Z,44.85
2022-11-10T16:50:32.348Z,45.42
2022-11-10T16:53:02.122Z,40.97
2022-11-10T16:55:28.712Z,44.47
2022-11-10T16:57:55.327Z,42.55
2022-11-10T17:00:21.930Z,43.80
2022-11-10T17:03:01.417Z,46.17
2022-11-10T17:05:28.476Z,44.83
2022-11-10T17:07:55.800Z,46.95
2022-11-10T17:10:22.309Z,50.35
2022-11-10T17:12:48.771Z,45.22
2022-11-10T17:15:16.111Z,66.03
2022-11-10T17:17:45.386Z,70.75
2022-11-10T17:20:25.873Z,61.88
2022-11-10T17:22:52.913Z,54.00
2022-11-10T17:25:30.012Z,78.63
2022-11-10T17:27:56.549Z,93.03
2022-11-10T17:30:23.497Z,75.93
2022-11-10T17:33:04.650Z,62.28
2022-11-10T17:35:39.191Z,56.60
2022-11-10T17:38:11.346Z,52.60
2022-11-10T17:40:37.989Z,48.92
2022-11-10T17:43:04.415Z,43.67
2022-11-10T17:45:30.832Z,73.75
2022-11-10T17:47:58.381Z,69.18
2022-11-10T17:50:24.828Z,71.68
2022-11-10T17:52:51.313Z,64.07
2022-11-10T17:55:20.550Z,59.60
2022-11-10T17:57:47.511Z,66.97
2022-11-10T18:00:15.534Z,61.58
2022-11-10T18:02:43.281Z,50.60
2022-11-10T18:05:15.325Z,53.40
2022-11-10T18:07:43.142Z,52.63
2022-11-10T18:10:12.813Z,50.63
2022-11-10T18:12:40.601Z,51.38
2022-11-10T18:15:13.688Z,53.08
2022-11-10T18:17:41.217Z,54.30
2022-11-10T18:20:09.423Z,50.75
2022-11-10T18:22:35.895Z,48.53
2022-11-10T18:25:02.336Z,52.90
2022-11-10T18:27:29.250Z,49.25
2022-11-10T18:29:55.742Z,50.20
2022-11-10T18:32:23.279Z,48.38
2022-11-10T18:34:50.094Z,47.22
2022-11-10T18:37:17.503Z,49.03
2022-11-10T18:39:44.144Z,51.95
2022-11-10T18:42:11.086Z,51.45
2022-11-10T18:44:37.595Z,51.95
2022-11-10T18:47:05.332Z,49.45
2022-11-10T18:49:31.860Z,49.90
2022-11-10T18:51:58.524Z,46.45
2022-11-10T18:54:25.737Z,45.58
2022-11-10T18:56:52.455Z,44.22
2022-11-10T18:59:18.976Z,43.80
2022-11-10T19:01:45.665Z,41.95
2022-11-10T19:04:13.389Z,45.25
2022-11-10T19:06:40.366Z,47.25
2022-11-10T19:09:07.009Z,47.30
2022-11-10T19:11:34.101Z,47.20
2022-11-10T19:14:01.905Z,47.95
2022-11-10T19:16:29.930Z,54.63
2022-11-10T19:18:57.181Z,56.38
2022-11-10T19:21:27.628Z,55.97
2022-11-10T19:23:56.194Z,53.93
2022-11-10T19:26:24.436Z,84.15
2022-11-10T19:28:53.240Z,91.40
2022-11-10T19:31:22.750Z,81.25
2022-11-10T19:33:51.008Z,76.22
2022-11-10T19:36:20.504Z,64.78
2022-11-10T19:38:47.148Z,63.35
2022-11-10T19:41:17.405Z,50.67
2022-11-10T19:43:47.420Z,48.08
2022-11-10T19:46:25.948Z,47.30
2022-11-10T19:48:52.400Z,45.65
2022-11-10T19:51:19.435Z,44.03
2022-11-10T19:53:47.846Z,46.08
2022-11-10T19:56:20.068Z,50.95
2022-11-10T19:58:47.688Z,57.60
2022-11-10T20:01:15.774Z,61.15
2022-11-10T20:03:43.148Z,52.97
2022-11-10T20:06:15.574Z,54.92
2022-11-10T20:08:44.178Z,54.63
2022-11-10T20:11:22.389Z,54.03
2022-11-10T20:13:54.419Z,59.88
2022-11-10T20:16:21.756Z,72.38
2022-11-10T20:18:48.231Z,70.20
2022-11-10T20:21:17.727Z,66.90
2022-11-10T20:23:44.438Z,64.93
2022-11-10T20:26:13.845Z,59.38
2022-11-10T20:28:40.933Z,52.10
2022-11-10T20:31:20.576Z,47.55
2022-11-10T20:33:48.444Z,40.35
2022-11-10T20:36:21.299Z,40.60
2022-11-10T20:38:49.331Z,35.70
2022-11-10T20:41:18.817Z,36.53
2022-11-10T20:43:46.388Z,34.47
2022-11-10T20:46:33.418Z,37.60
2022-11-10T20:49:02.587Z,33.90
2022-11-10T20:51:29.078Z,33.47
2022-11-10T20:53:56.912Z,37.90
2022-11-10T20:56:28.360Z,40.88
2022-11-10T20:58:56.479Z,39.13
2022-11-10T21:01:23.570Z,40.97
2022-11-10T21:03:50.283Z,35.70
2022-11-10T21:06:16.831Z,37.03
2022-11-10T21:08:43.393Z,36.25
2022-11-10T21:11:10.333Z,38.22
2022-11-10T21:13:37.133Z,38.15
2022-11-10T21:16:06.387Z,37.45
2022-11-10T21:18:35.195Z,37.47
2022-11-10T21:21:02.021Z,37.85
2022-11-10T21:23:28.537Z,37.05
2022-11-10T21:25:56.552Z,35.33
2022-11-10T21:28:23.640Z,36.13
2022-11-10T21:30:50.377Z,37.35
2022-11-10T21:33:16.950Z,37.92
2022-11-10T21:35:43.490Z,38.58
2022-11-10T21:38:13.880Z,42.38
2022-11-10T21:40:40.375Z,39.77
2022-11-10T21:43:07.438Z,38.72
2022-11-10T21:45:33.926Z,40.78
2022-11-10T21:48:01.726Z,43.20
2022-11-10T21:50:28.840Z,40.75
2022-11-10T21:52:55.380Z,41.10
2022-11-10T21:55:21.859Z,45.55
2022-11-10T21:57:48.275Z,44.05
2022-11-10T22:00:15.017Z,56.03
2022-11-10T22:02:41.472Z,55.67
2022-11-10T22:05:08.276Z,48.00
2022-11-10T22:07:34.732Z,48.80
2022-11-10T22:10:19.755Z,52.33
2022-11-10T22:13:04.889Z,52.55
2022-11-10T22:15:49.611Z,68.13
2022-11-10T22:18:36.388Z,52.65
2022-11-10T22:21:04.153Z,52.60
2022-11-10T22:23:49.406Z,46.75
2022-11-10T22:26:15.893Z,51.53
2022-11-10T22:28:42.367Z,45.22
2022-11-10T22:31:10.333Z,58.33
2022-11-10T22:33:39.163Z,55.45
2022-11-10T22:36:08.788Z,44.47
2022-11-10T22:38:37.650Z,46.08
2022-11-10T22:41:23.339Z,46.55
2022-11-10T22:44:04.730Z,51.55
2022-11-10T22:46:36.579Z,40.25
2022-11-10T22:49:08.789Z,40.35
2022-11-10T22:51:36.702Z,46.90
2022-11-10T22:54:04.465Z,41.72
2022-11-10T22:56:32.471Z,41.67
2022-11-10T22:59:00.322Z,38.70
2022-11-10T23:01:27.628Z,35.15
2022-11-10T23:03:54.499Z,40.88
2022-11-10T23:06:21.001Z,50.65
2022-11-10T23:08:47.431Z,72.63
2022-11-10T23:11:17.299Z,62.38
2022-11-10T23:13:43.707Z,57.17
2022-11-10T23:16:15.517Z,53.88
2022-11-10T23:18:43.638Z,52.65
2022-11-10T23:21:13.140Z,46.03
2022-11-10T23:23:40.312Z,40.45
2022-11-10T23:26:09.386Z,35.92
2022-11-10T23:28:37.426Z,36.38
2022-11-10T23:31:11.271Z,31.27
2022-11-10T23:33:39.590Z,41.50
2022-11-10T23:36:07.331Z,31.23
2022-11-10T23:38:35.153Z,32.25
2022-11-10T23:41:03.000Z,31.58
2022-11-10T23:43:30.036Z,31.65
2022-11-10T23:46:12.613Z,31.02
2022-11-10T23:48:39.910Z,30.50
2022-11-10T23:51:07.816Z,41.72
2022-11-10T23:53:34.531Z,46.47
2022-11-10T23:56:03.298Z,36.00
2022-11-10T23:58:30.410Z,33.25
